createdAt,value
2017-10-26T00:16:59.368Z,4.57
2017-10-26T00:37:34.094Z,4.63
2017-10-26T00:58:08.641Z,6.70
2017-10-26T01:18:43.863Z,6.83
2017-10-26T01:39:22.292Z,5.10
2017-10-26T02:18:02.684Z,5.33
2017-10-26T02:38:39.353Z,3.83
2017-10-26T02:59:13.226Z,4.63
2017-10-26T03:19:54.868Z,5.20
2017-10-26T03:40:30.836Z,3.93
2017-10-26T04:01:09.367Z,3.70
2017-10-26T04:21:46.617Z,3.90
2017-10-26T04:42:22.492Z,4.40
2017-10-26T05:02:56.842Z,3.50
2017-10-26T05:23:36.107Z,3.07
2017-10-26T05:44:12.317Z,3.80
2017-10-26T06:04:44.500Z,3.93
2017-10-26T06:25:25.226Z,3.03
2017-10-26T06:45:59.958Z,3.57
2017-10-26T07:06:32.156Z,3.00
2017-10-26T07:27:08.654Z,3.87
2017-10-26T07:47:40.550Z,4.07
2017-10-26T08:08:14.896Z,4.93
2017-10-26T08:28:52.014Z,5.90
2017-10-26T08:49:30.358Z,6.20
2017-10-26T09:10:09.622Z,4.27
2017-10-26T09:30:41.822Z,4.00
2017-10-26T09:51:16.172Z,5.83
2017-10-26T10:11:49.293Z,6.17
2017-10-26T10:32:25.836Z,6.80
2017-10-26T10:52:58.612Z,13.27
2017-10-26T11:13:32.959Z,11.50
2017-10-26T11:34:12.545Z,10.43
2017-10-26T11:54:46.754Z,8.87
2017-10-26T12:15:24.916Z,9.17
2017-10-26T12:36:00.421Z,8.60
2017-10-26T12:56:35.485Z,8.23
2017-10-26T13:17:16.566Z,7.33
2017-10-26T13:37:52.760Z,7.00
2017-10-26T13:58:34.305Z,6.53
2017-10-26T14:19:12.521Z,3.70
2017-10-26T14:39:50.557Z,6.53
2017-10-26T15:00:26.060Z,4.03
2017-10-26T15:20:58.253Z,3.50
2017-10-26T15:41:30.457Z,3.60
2017-10-26T16:02:05.499Z,3.70
2017-10-26T16:22:43.945Z,3.80
2017-10-26T16:43:16.042Z,3.70
2017-10-26T17:03:49.162Z,3.60
2017-10-26T17:24:25.356Z,5.30
2017-10-26T17:44:59.817Z,4.77
2017-10-26T18:05:33.748Z,6.33
2017-10-26T18:26:13.020Z,5.70
2017-10-26T18:46:49.210Z,6.30
2017-10-26T19:07:26.325Z,6.33
2017-10-26T19:28:01.901Z,6.17
2017-10-26T19:48:37.174Z,6.13
2017-10-26T20:09:09.992Z,5.73
2017-10-26T20:29:46.489Z,5.60
2017-10-26T20:50:26.995Z,6.13
2017-10-26T21:11:05.946Z,4.77
2017-10-26T21:31:46.128Z,6.10
2017-10-26T21:52:26.635Z,5.50
2017-10-26T22:13:04.659Z,5.83
2017-10-26T22:33:39.001Z,5.50
2017-10-26T22:54:13.355Z,6.23
2017-10-26T23:14:48.774Z,7.50
2017-10-26T23:35:24.819Z,6.87
2017-10-26T23:55:57.942Z,6.30
